Terminal Aerodrome Forecast
Issued by NWS Charleston, WV

Current Version | Previous Version | Graphics & Text | Print | Product List | Glossary On
Versions: 1 2 3 4 5 6 7 8 9 10 11 12 13 14 15 16 17 18 19 20 21 22 23 24 25 26 27 28 29 30 31 32 33
000
FTUS41 KRLX 201628 AAB
TAFCRW
TAF AMD
KCRW 201628Z 2016/2112 31005KT P6SM SCT035
     FM202100 31004KT P6SM SCT150
     FM210800 01002KT 5SM -SHRA OVC025
     FM211000 35003KT 3SM -SHRA OVC015=

USA.gov is the U.S. government's official web portal to all federal, state and local government web resources and services.